Pagrindinis puslapis
METAR-TAF:

METAR-TAF

Oro uostai :

Paros, Graikija

platuma: 37-01-15N, ilguma: 025-06-46E, Aukštis: 38 m

Dabartinis oras

Ataskaita buvo paskelbta 40 minutes, ne 17:20 UTC
Vėjas 11 kt iš Šiaurės
Temperatūra 23°C
Drėgmė 69%
Slėgis 1016 hPa

METAR: LGPA 151720Z AUTO 36011KT //// // ////// 23/17 Q1016 RE//

Laikas: 21:00 (18:00 UTC)


TAF: trūkstamas

Orai ataskaitas ir orų prognozės (METAR, TAF).

turimą stotys yra geltonos ir raudonos taškus žemėlapyje.

Perkelti pele per norėdami pamatyti stoties vardą.

Tada spustelėkite, norėdami matyti oro stebėjimo ir prognozės.

Norėdami pakeisti žemėlapį: spustelėkite ant žalios mygtukų su juodo kryžiaus žemyn,; žalią mygtuką su brūkšneliu, jei norite nutolinti; arba žalių rodyklių gretimoms žemėlapius.


METAR-TAF: